sensor_id;sensor_type;location;lat;lon;timestamp;pressure;altitude;pressure_sealevel;temperature;humidity
48089;BME280;33867;50.314;7.802;2022-09-09T00:00:53;99798.31;;;15.37;nan
48089;BME280;33867;50.314;7.802;2022-09-09T00:04:32;99792.81;;;15.31;nan
48089;BME280;33867;50.314;7.802;2022-09-09T00:07:54;99795.53;;;15.31;nan
48089;BME280;33867;50.314;7.802;2022-09-09T00:11:18;99794.19;;;15.27;nan
48089;BME280;33867;50.314;7.802;2022-09-09T00:14:56;99799.28;;;15.30;nan
48089;BME280;33867;50.314;7.802;2022-09-09T00:22:10;99787.41;;;15.31;nan
48089;BME280;33867;50.314;7.802;2022-09-09T00:26:05;99788.97;;;15.25;nan
48089;BME280;33867;50.314;7.802;2022-09-09T00:29:43;99794.88;;;15.14;nan
48089;BME280;33867;50.314;7.802;2022-09-09T00:33:12;99777.28;;;15.10;nan
48089;BME280;33867;50.314;7.802;2022-09-09T00:36:35;99784.66;;;15.01;nan
48089;BME280;33867;50.314;7.802;2022-09-09T00:39:59;99777.50;;;14.94;nan
48089;BME280;33867;50.314;7.802;2022-09-09T00:43:35;99779.06;;;14.88;nan
48089;BME280;33867;50.314;7.802;2022-09-09T00:47:12;99778.78;;;14.83;nan
48089;BME280;33867;50.314;7.802;2022-09-09T00:50:53;99777.28;;;14.80;nan
48089;BME280;33867;50.314;7.802;2022-09-09T00:54:33;99777.44;;;14.79;nan
48089;BME280;33867;50.314;7.802;2022-09-09T00:57:56;99787.81;;;14.75;nan
48089;BME280;33867;50.314;7.802;2022-09-09T01:01:15;99789.75;;;14.67;nan
48089;BME280;33867;50.314;7.802;2022-09-09T01:04:36;99782.91;;;14.56;nan
48089;BME280;33867;50.314;7.802;2022-09-09T01:07:57;99779.75;;;14.67;nan
48089;BME280;33867;50.314;7.802;2022-09-09T01:11:25;99776.34;;;14.73;nan
48089;BME280;33867;50.314;7.802;2022-09-09T01:15:03;99782.41;;;14.75;nan
48089;BME280;33867;50.314;7.802;2022-09-09T01:18:38;99780.06;;;14.72;nan
48089;BME280;33867;50.314;7.802;2022-09-09T01:22:09;99783.50;;;14.66;nan
48089;BME280;33867;50.314;7.802;2022-09-09T01:29:29;99782.13;;;14.70;nan
48089;BME280;33867;50.314;7.802;2022-09-09T01:32:52;99777.19;;;14.88;nan
48089;BME280;33867;50.314;7.802;2022-09-09T01:39:42;99783.75;;;14.94;nan
48089;BME280;33867;50.314;7.802;2022-09-09T01:43:05;99795.56;;;14.78;nan
48089;BME280;33867;50.314;7.802;2022-09-09T01:46:27;99800.47;;;14.83;nan
48089;BME280;33867;50.314;7.802;2022-09-09T01:49:47;99803.75;;;14.93;nan
48089;BME280;33867;50.314;7.802;2022-09-09T01:53:15;99806.81;;;14.90;nan
48089;BME280;33867;50.314;7.802;2022-09-09T02:00:14;99804.94;;;14.90;nan
48089;BME280;33867;50.314;7.802;2022-09-09T02:03:35;99798.22;;;14.86;nan
48089;BME280;33867;50.314;7.802;2022-09-09T02:11:01;99792.97;;;14.70;nan
48089;BME280;33867;50.314;7.802;2022-09-09T02:14:40;99797.81;;;14.60;nan
48089;BME280;33867;50.314;7.802;2022-09-09T02:18:04;99788.44;;;14.48;nan
48089;BME280;33867;50.314;7.802;2022-09-09T02:21:29;99791.78;;;14.50;nan
48089;BME280;33867;50.314;7.802;2022-09-09T02:24:50;99793.47;;;14.51;nan
48089;BME280;33867;50.314;7.802;2022-09-09T02:28:16;99785.06;;;14.46;nan
48089;BME280;33867;50.314;7.802;2022-09-09T02:31:38;99781.31;;;14.24;nan
48089;BME280;33867;50.314;7.802;2022-09-09T02:35:08;99780.47;;;14.23;nan
48089;BME280;33867;50.314;7.802;2022-09-09T02:38:30;99780.66;;;14.22;nan
48089;BME280;33867;50.314;7.802;2022-09-09T02:41:58;99784.13;;;14.30;nan
48089;BME280;33867;50.314;7.802;2022-09-09T02:45:27;99783.88;;;14.40;nan
48089;BME280;33867;50.314;7.802;2022-09-09T02:48:55;99782.50;;;14.44;nan
48089;BME280;33867;50.314;7.802;2022-09-09T02:52:36;99771.75;;;14.59;nan
48089;BME280;33867;50.314;7.802;2022-09-09T02:56:15;99774.44;;;14.59;nan
48089;BME280;33867;50.314;7.802;2022-09-09T02:59:37;99769.38;;;14.56;nan
48089;BME280;33867;50.314;7.802;2022-09-09T03:02:57;99767.16;;;14.37;nan
48089;BME280;33867;50.314;7.802;2022-09-09T03:06:16;99786.13;;;14.37;nan
48089;BME280;33867;50.314;7.802;2022-09-09T03:09:40;99778.41;;;14.25;nan
48089;BME280;33867;50.314;7.802;2022-09-09T03:12:59;99783.41;;;14.37;nan
48089;BME280;33867;50.314;7.802;2022-09-09T03:16:23;99772.84;;;14.42;nan
48089;BME280;33867;50.314;7.802;2022-09-09T03:19:44;99783.41;;;14.37;nan
48089;BME280;33867;50.314;7.802;2022-09-09T03:23:03;99780.69;;;14.37;nan
48089;BME280;33867;50.314;7.802;2022-09-09T03:26:22;99786.59;;;14.40;nan
48089;BME280;33867;50.314;7.802;2022-09-09T03:29:42;99785.06;;;14.46;nan
48089;BME280;33867;50.314;7.802;2022-09-09T03:33:05;99781.09;;;14.56;nan
48089;BME280;33867;50.314;7.802;2022-09-09T03:36:26;99791.78;;;14.50;nan
48089;BME280;33867;50.314;7.802;2022-09-09T03:39:45;99810.78;;;14.42;nan
48089;BME280;33867;50.314;7.802;2022-09-09T03:43:05;99799.53;;;14.53;nan
48089;BME280;33867;50.314;7.802;2022-09-09T03:46:25;99807.88;;;14.66;nan
48089;BME280;33867;50.314;7.802;2022-09-09T03:49:45;99792.31;;;14.68;nan
48089;BME280;33867;50.314;7.802;2022-09-09T03:53:04;99791.50;;;14.45;nan
48089;BME280;33867;50.314;7.802;2022-09-09T03:56:25;99785.94;;;14.61;nan
48089;BME280;33867;50.314;7.802;2022-09-09T03:59:44;99789.03;;;14.73;nan
48089;BME280;33867;50.314;7.802;2022-09-09T04:03:03;99774.66;;;14.72;nan
48089;BME280;33867;50.314;7.802;2022-09-09T04:06:22;99780.13;;;14.64;nan
48089;BME280;33867;50.314;7.802;2022-09-09T04:09:41;99772.19;;;14.40;nan
48089;BME280;33867;50.314;7.802;2022-09-09T04:13:01;99781.34;;;14.61;nan
48089;BME280;33867;50.314;7.802;2022-09-09T04:16:21;99785.75;;;14.62;nan
48089;BME280;33867;50.314;7.802;2022-09-09T04:19:40;99798.75;;;14.44;nan
48089;BME280;33867;50.314;7.802;2022-09-09T04:23:01;99785.53;;;14.49;nan
48089;BME280;33867;50.314;7.802;2022-09-09T04:26:20;99787.41;;;14.49;nan
48089;BME280;33867;50.314;7.802;2022-09-09T04:29:39;99793.09;;;14.54;nan
48089;BME280;33867;50.314;7.802;2022-09-09T04:32:58;99805.78;;;14.30;nan
48089;BME280;33867;50.314;7.802;2022-09-09T04:36:18;99788.53;;;14.54;nan
48089;BME280;33867;50.314;7.802;2022-09-09T04:39:38;99793.75;;;14.56;nan
48089;BME280;33867;50.314;7.802;2022-09-09T04:42:59;99794.06;;;14.61;nan
48089;BME280;33867;50.314;7.802;2022-09-09T04:46:20;99794.53;;;14.65;nan
48089;BME280;33867;50.314;7.802;2022-09-09T04:49:41;99799.09;;;14.64;nan
48089;BME280;33867;50.314;7.802;2022-09-09T04:53:02;99795.88;;;14.69;nan
48089;BME280;33867;50.314;7.802;2022-09-09T04:56:22;99809.81;;;14.80;nan
48089;BME280;33867;50.314;7.802;2022-09-09T04:59:47;99798.09;;;14.80;nan
48089;BME280;33867;50.314;7.802;2022-09-09T05:03:07;99795.31;;;14.88;nan
48089;BME280;33867;50.314;7.802;2022-09-09T05:06:28;99804.00;;;14.83;nan
48089;BME280;33867;50.314;7.802;2022-09-09T05:09:52;99804.16;;;14.67;nan
48089;BME280;33867;50.314;7.802;2022-09-09T05:13:11;99815.50;;;14.71;nan
48089;BME280;33867;50.314;7.802;2022-09-09T05:16:30;99822.22;;;14.75;nan
48089;BME280;33867;50.314;7.802;2022-09-09T05:19:50;99822.59;;;14.72;nan
48089;BME280;33867;50.314;7.802;2022-09-09T05:23:08;99830.53;;;14.73;nan
48089;BME280;33867;50.314;7.802;2022-09-09T05:26:30;99829.25;;;14.84;nan
48089;BME280;33867;50.314;7.802;2022-09-09T05:29:50;99826.94;;;14.96;nan
48089;BME280;33867;50.314;7.802;2022-09-09T05:33:09;99831.59;;;15.02;nan
48089;BME280;33867;50.314;7.802;2022-09-09T05:36:28;99826.47;;;15.07;nan
48089;BME280;33867;50.314;7.802;2022-09-09T05:39:49;99813.31;;;15.18;nan
48089;BME280;33867;50.314;7.802;2022-09-09T05:43:09;99827.59;;;15.27;nan
48089;BME280;33867;50.314;7.802;2022-09-09T05:46:28;99827.31;;;15.22;nan
48089;BME280;33867;50.314;7.802;2022-09-09T05:49:48;99835.84;;;15.19;nan
48089;BME280;33867;50.314;7.802;2022-09-09T05:53:09;99827.81;;;15.40;nan
48089;BME280;33867;50.314;7.802;2022-09-09T05:56:29;99834.00;;;15.64;nan
48089;BME280;33867;50.314;7.802;2022-09-09T05:59:49;99827.88;;;15.62;nan
48089;BME280;33867;50.314;7.802;2022-09-09T06:03:11;99828.50;;;15.93;nan
48089;BME280;33867;50.314;7.802;2022-09-09T06:06:33;99833.31;;;15.76;nan
48089;BME280;33867;50.314;7.802;2022-09-09T06:10:03;99830.88;;;15.82;nan
48089;BME280;33867;50.314;7.802;2022-09-09T06:13:22;99825.03;;;15.99;nan
48089;BME280;33867;50.314;7.802;2022-09-09T06:16:43;99827.88;;;16.13;nan
48089;BME280;33867;50.314;7.802;2022-09-09T06:20:18;99812.03;;;16.16;nan
48089;BME280;33867;50.314;7.802;2022-09-09T06:23:39;99821.75;;;16.68;nan
48089;BME280;33867;50.314;7.802;2022-09-09T06:26:59;99817.22;;;16.75;nan
48089;BME280;33867;50.314;7.802;2022-09-09T06:30:22;99812.81;;;17.02;nan
48089;BME280;33867;50.314;7.802;2022-09-09T06:33:42;99805.44;;;20.66;nan
48089;BME280;33867;50.314;7.802;2022-09-09T06:37:02;99816.06;;;22.99;nan
48089;BME280;33867;50.314;7.802;2022-09-09T06:40:28;99804.88;;;23.88;nan
48089;BME280;33867;50.314;7.802;2022-09-09T06:43:47;99811.75;;;23.50;nan
48089;BME280;33867;50.314;7.802;2022-09-09T06:47:07;99799.97;;;21.71;nan
48089;BME280;33867;50.314;7.802;2022-09-09T06:50:27;99812.19;;;20.64;nan
48089;BME280;33867;50.314;7.802;2022-09-09T06:53:46;99808.34;;;20.71;nan
48089;BME280;33867;50.314;7.802;2022-09-09T06:57:06;99814.25;;;22.10;nan
48089;BME280;33867;50.314;7.802;2022-09-09T07:00:27;99812.44;;;21.85;nan
48089;BME280;33867;50.314;7.802;2022-09-09T07:03:48;99822.13;;;19.82;nan
48089;BME280;33867;50.314;7.802;2022-09-09T07:07:09;99822.56;;;19.79;nan
48089;BME280;33867;50.314;7.802;2022-09-09T07:10:31;99830.94;;;19.84;nan
48089;BME280;33867;50.314;7.802;2022-09-09T07:13:50;99824.03;;;20.83;nan
48089;BME280;33867;50.314;7.802;2022-09-09T07:17:10;99823.34;;;20.31;nan
48089;BME280;33867;50.314;7.802;2022-09-09T07:20:32;99832.38;;;20.31;nan
48089;BME280;33867;50.314;7.802;2022-09-09T07:23:52;99830.53;;;19.80;nan
48089;BME280;33867;50.314;7.802;2022-09-09T07:27:11;99826.25;;;19.33;nan
48089;BME280;33867;50.314;7.802;2022-09-09T07:30:31;99824.53;;;19.39;nan
48089;BME280;33867;50.314;7.802;2022-09-09T07:33:51;99829.75;;;19.53;nan
48089;BME280;33867;50.314;7.802;2022-09-09T07:37:10;99835.22;;;19.53;nan
48089;BME280;33867;50.314;7.802;2022-09-09T07:40:33;99824.63;;;19.83;nan
48089;BME280;33867;50.314;7.802;2022-09-09T07:43:54;99830.94;;;19.84;nan
48089;BME280;33867;50.314;7.802;2022-09-09T07:47:13;99834.19;;;20.06;nan
48089;BME280;33867;50.314;7.802;2022-09-09T07:50:37;99834.22;;;20.44;nan
48089;BME280;33867;50.314;7.802;2022-09-09T07:54:01;99829.59;;;20.38;nan
48089;BME280;33867;50.314;7.802;2022-09-09T07:57:23;99834.44;;;20.74;nan
48089;BME280;33867;50.314;7.802;2022-09-09T08:00:44;99840.03;;;20.86;nan
48089;BME280;33867;50.314;7.802;2022-09-09T08:04:08;99837.28;;;20.61;nan
48089;BME280;33867;50.314;7.802;2022-09-09T08:07:28;99835.03;;;20.76;nan
48089;BME280;33867;50.314;7.802;2022-09-09T08:10:48;99852.03;;;20.53;nan
48089;BME280;33867;50.314;7.802;2022-09-09T08:14:08;99846.34;;;20.17;nan
48089;BME280;33867;50.314;7.802;2022-09-09T08:17:27;99845.53;;;20.09;nan
48089;BME280;33867;50.314;7.802;2022-09-09T08:20:46;99849.38;;;19.95;nan
48089;BME280;33867;50.314;7.802;2022-09-09T08:24:08;99845.56;;;20.41;nan
48089;BME280;33867;50.314;7.802;2022-09-09T08:27:27;99846.03;;;20.69;nan
48089;BME280;33867;50.314;7.802;2022-09-09T08:30:48;99850.44;;;20.95;nan
48089;BME280;33867;50.314;7.802;2022-09-09T08:34:08;99857.19;;;21.43;nan
48089;BME280;33867;50.314;7.802;2022-09-09T08:37:29;99856.00;;;21.57;nan
48089;BME280;33867;50.314;7.802;2022-09-09T08:40:49;99857.75;;;21.51;nan
48089;BME280;33867;50.314;7.802;2022-09-09T08:48:07;99861.81;;;21.42;nan
48089;BME280;33867;50.314;7.802;2022-09-09T08:51:30;99861.16;;;21.65;nan
48089;BME280;33867;50.314;7.802;2022-09-09T08:54:50;99858.84;;;21.69;nan
48089;BME280;33867;50.314;7.802;2022-09-09T08:58:17;99851.78;;;21.36;nan
48089;BME280;33867;50.314;7.802;2022-09-09T09:01:49;99858.25;;;20.29;nan
48089;BME280;33867;50.314;7.802;2022-09-09T09:05:19;99849.09;;;20.80;nan
48089;BME280;33867;50.314;7.802;2022-09-09T09:08:50;99851.19;;;21.09;nan
48089;BME280;33867;50.314;7.802;2022-09-09T09:12:16;99850.25;;;20.97;nan
48089;BME280;33867;50.314;7.802;2022-09-09T09:15:38;99851.84;;;21.05;nan
48089;BME280;33867;50.314;7.802;2022-09-09T09:18:59;99855.06;;;20.95;nan
48089;BME280;33867;50.314;7.802;2022-09-09T09:22:50;99862.44;;;20.69;nan
48089;BME280;33867;50.314;7.802;2022-09-09T09:26:10;99849.72;;;20.82;nan
48089;BME280;33867;50.314;7.802;2022-09-09T09:29:31;99860.31;;;20.40;nan
48089;BME280;33867;50.314;7.802;2022-09-09T09:32:56;99843.13;;;20.89;nan
48089;BME280;33867;50.314;7.802;2022-09-09T09:36:17;99856.78;;;20.96;nan
48089;BME280;33867;50.314;7.802;2022-09-09T09:39:38;99859.22;;;21.04;nan
48089;BME280;33867;50.314;7.802;2022-09-09T09:43:00;99861.91;;;21.36;nan
48089;BME280;33867;50.314;7.802;2022-09-09T09:46:22;99858.28;;;21.97;nan
48089;BME280;33867;50.314;7.802;2022-09-09T09:49:59;99857.66;;;22.13;nan
48089;BME280;33867;50.314;7.802;2022-09-09T09:53:30;99842.41;;;22.47;nan
48089;BME280;33867;50.314;7.802;2022-09-09T09:56:51;99831.72;;;23.11;nan
48089;BME280;33867;50.314;7.802;2022-09-09T10:03:35;99844.63;;;23.22;nan
48089;BME280;33867;50.314;7.802;2022-09-09T10:07:10;99851.69;;;22.76;nan
48089;BME280;33867;50.314;7.802;2022-09-09T10:11:05;99845.06;;;23.77;nan
48089;BME280;33867;50.314;7.802;2022-09-09T10:14:30;99828.97;;;25.00;nan
48089;BME280;33867;50.314;7.802;2022-09-09T10:21:49;99843.22;;;26.08;nan
48089;BME280;33867;50.314;7.802;2022-09-09T10:25:29;99827.53;;;24.64;nan
48089;BME280;33867;50.314;7.802;2022-09-09T10:36:38;99833.25;;;24.62;nan
48089;BME280;33867;50.314;7.802;2022-09-09T10:40:14;99827.75;;;26.56;nan
48089;BME280;33867;50.314;7.802;2022-09-09T10:48:27;99807.06;;;28.42;nan
48089;BME280;33867;50.314;7.802;2022-09-09T10:51:49;99810.41;;;29.26;nan
48089;BME280;33867;50.314;7.802;2022-09-09T10:55:18;99808.75;;;29.25;nan
48089;BME280;33867;50.314;7.802;2022-09-09T10:58:42;99816.38;;;29.79;nan
48089;BME280;33867;50.314;7.802;2022-09-09T11:05:41;99809.97;;;29.88;nan
48089;BME280;33867;50.314;7.802;2022-09-09T11:09:02;99814.38;;;29.94;nan
48089;BME280;33867;50.314;7.802;2022-09-09T11:12:24;99815.16;;;28.90;nan
48089;BME280;33867;50.314;7.802;2022-09-09T11:15:49;99816.75;;;29.41;nan
48089;BME280;33867;50.314;7.802;2022-09-09T11:19:20;99808.94;;;30.28;nan
48089;BME280;33867;50.314;7.802;2022-09-09T11:22:59;99819.28;;;31.59;nan
48089;BME280;33867;50.314;7.802;2022-09-09T11:26:31;99798.44;;;30.65;nan
48089;BME280;33867;50.314;7.802;2022-09-09T11:33:47;99809.03;;;29.18;nan
48089;BME280;33867;50.314;7.802;2022-09-09T11:37:44;99812.06;;;27.73;nan
48089;BME280;33867;50.314;7.802;2022-09-09T11:41:08;99807.09;;;27.32;nan
48089;BME280;33867;50.314;7.802;2022-09-09T11:44:30;99812.50;;;26.48;nan
48089;BME280;33867;50.314;7.802;2022-09-09T11:47:57;99815.38;;;26.63;nan
48089;BME280;33867;50.314;7.802;2022-09-09T11:54:47;99806.81;;;26.92;nan
48089;BME280;33867;50.314;7.802;2022-09-09T12:01:34;99792.41;;;29.18;nan
48089;BME280;33867;50.314;7.802;2022-09-09T12:05:08;99794.91;;;28.84;nan
48089;BME280;33867;50.314;7.802;2022-09-09T12:08:30;99787.97;;;28.46;nan
48089;BME280;33867;50.314;7.802;2022-09-09T12:11:51;99795.63;;;26.44;nan
48089;BME280;33867;50.314;7.802;2022-09-09T12:18:37;99791.41;;;26.69;nan
48089;BME280;33867;50.314;7.802;2022-09-09T12:22:03;99784.63;;;29.25;nan
48089;BME280;33867;50.314;7.802;2022-09-09T12:29:25;99777.78;;;26.89;nan
48089;BME280;33867;50.314;7.802;2022-09-09T12:32:46;99784.63;;;28.39;nan
48089;BME280;33867;50.314;7.802;2022-09-09T12:36:11;99774.50;;;26.60;nan
48089;BME280;33867;50.314;7.802;2022-09-09T12:39:38;99768.34;;;26.26;nan
48089;BME280;33867;50.314;7.802;2022-09-09T12:43:14;99756.41;;;28.67;nan
48089;BME280;33867;50.314;7.802;2022-09-09T12:46:45;99759.97;;;30.43;nan
48089;BME280;33867;50.314;7.802;2022-09-09T12:50:10;99753.78;;;28.05;nan
48089;BME280;33867;50.314;7.802;2022-09-09T12:53:35;99771.50;;;27.46;nan
48089;BME280;33867;50.314;7.802;2022-09-09T12:56:55;99752.00;;;27.16;nan
48089;BME280;33867;50.314;7.802;2022-09-09T13:00:17;99753.00;;;24.37;nan
48089;BME280;33867;50.314;7.802;2022-09-09T13:03:42;99746.53;;;25.10;nan
48089;BME280;33867;50.314;7.802;2022-09-09T13:07:06;99740.84;;;25.39;nan
48089;BME280;33867;50.314;7.802;2022-09-09T13:10:29;99754.41;;;25.23;nan
48089;BME280;33867;50.314;7.802;2022-09-09T13:13:54;99754.53;;;25.12;nan
48089;BME280;33867;50.314;7.802;2022-09-09T13:17:20;99747.84;;;24.74;nan
48089;BME280;33867;50.314;7.802;2022-09-09T13:20:46;99746.94;;;24.68;nan
48089;BME280;33867;50.314;7.802;2022-09-09T13:24:21;99730.16;;;24.36;nan
48089;BME280;33867;50.314;7.802;2022-09-09T13:27:59;99720.56;;;24.72;nan
48089;BME280;33867;50.314;7.802;2022-09-09T13:31:28;99726.44;;;24.42;nan
48089;BME280;33867;50.314;7.802;2022-09-09T13:34:53;99734.16;;;24.00;nan
48089;BME280;33867;50.314;7.802;2022-09-09T13:38:16;99731.03;;;23.80;nan
48089;BME280;33867;50.314;7.802;2022-09-09T13:41:41;99736.97;;;23.48;nan
48089;BME280;33867;50.314;7.802;2022-09-09T13:45:01;99757.38;;;23.52;nan
48089;BME280;33867;50.314;7.802;2022-09-09T13:48:23;99759.81;;;22.25;nan
48089;BME280;33867;50.314;7.802;2022-09-09T13:51:49;99796.66;;;21.69;nan
48089;BME280;33867;50.314;7.802;2022-09-09T13:55:09;99788.41;;;21.69;nan
48089;BME280;33867;50.314;7.802;2022-09-09T13:58:28;99784.44;;;21.83;nan
48089;BME280;33867;50.314;7.802;2022-09-09T14:01:48;99788.31;;;23.71;nan
48089;BME280;33867;50.314;7.802;2022-09-09T14:05:11;99777.59;;;24.15;nan
48089;BME280;33867;50.314;7.802;2022-09-09T14:08:30;99768.81;;;25.30;nan
48089;BME280;33867;50.314;7.802;2022-09-09T14:11:55;99763.81;;;23.98;nan
48089;BME280;33867;50.314;7.802;2022-09-09T14:15:14;99751.91;;;25.44;nan
48089;BME280;33867;50.314;7.802;2022-09-09T14:18:34;99747.06;;;25.51;nan
48089;BME280;33867;50.314;7.802;2022-09-09T14:21:53;99745.72;;;25.75;nan
48089;BME280;33867;50.314;7.802;2022-09-09T14:25:13;99753.81;;;25.21;nan
48089;BME280;33867;50.314;7.802;2022-09-09T14:28:35;99747.38;;;25.54;nan
48089;BME280;33867;50.314;7.802;2022-09-09T14:31:54;99745.69;;;25.53;nan
48089;BME280;33867;50.314;7.802;2022-09-09T14:35:13;99743.84;;;24.48;nan
48089;BME280;33867;50.314;7.802;2022-09-09T14:38:35;99752.44;;;22.91;nan
48089;BME280;33867;50.314;7.802;2022-09-09T14:41:58;99749.41;;;22.57;nan
48089;BME280;33867;50.314;7.802;2022-09-09T14:45:17;99759.56;;;22.80;nan
48089;BME280;33867;50.314;7.802;2022-09-09T14:48:36;99774.69;;;22.06;nan
48089;BME280;33867;50.314;7.802;2022-09-09T14:51:55;99777.22;;;22.19;nan
48089;BME280;33867;50.314;7.802;2022-09-09T14:55:14;99784.50;;;22.25;nan
48089;BME280;33867;50.314;7.802;2022-09-09T14:58:35;99789.03;;;21.35;nan
48089;BME280;33867;50.314;7.802;2022-09-09T15:01:54;99799.81;;;20.61;nan
48089;BME280;33867;50.314;7.802;2022-09-09T15:05:13;99809.38;;;21.20;nan
48089;BME280;33867;50.314;7.802;2022-09-09T15:08:37;99822.25;;;21.20;nan
48089;BME280;33867;50.314;7.802;2022-09-09T15:11:57;99836.44;;;21.10;nan
48089;BME280;33867;50.314;7.802;2022-09-09T15:15:16;99854.41;;;20.75;nan
48089;BME280;33867;50.314;7.802;2022-09-09T15:18:36;99860.19;;;20.22;nan
48089;BME280;33867;50.314;7.802;2022-09-09T15:21:55;99864.66;;;19.58;nan
48089;BME280;33867;50.314;7.802;2022-09-09T15:25:14;99866.28;;;19.79;nan
48089;BME280;33867;50.314;7.802;2022-09-09T15:28:35;99867.56;;;19.63;nan
48089;BME280;33867;50.314;7.802;2022-09-09T15:31:55;99862.13;;;19.56;nan
48089;BME280;33867;50.314;7.802;2022-09-09T15:35:15;99855.69;;;18.85;nan
48089;BME280;33867;50.314;7.802;2022-09-09T15:38:34;99858.34;;;18.52;nan
48089;BME280;33867;50.314;7.802;2022-09-09T15:41:53;99848.66;;;18.36;nan
48089;BME280;33867;50.314;7.802;2022-09-09T15:45:12;99840.50;;;18.49;nan
48089;BME280;33867;50.314;7.802;2022-09-09T15:48:31;99842.41;;;18.49;nan
48089;BME280;33867;50.314;7.802;2022-09-09T15:51:53;99854.63;;;18.86;nan
48089;BME280;33867;50.314;7.802;2022-09-09T15:55:13;99841.41;;;18.96;nan
48089;BME280;33867;50.314;7.802;2022-09-09T15:58:33;99838.25;;;18.79;nan
48089;BME280;33867;50.314;7.802;2022-09-09T16:01:52;99855.47;;;18.99;nan
48089;BME280;33867;50.314;7.802;2022-09-09T16:05:12;99850.38;;;18.63;nan
48089;BME280;33867;50.314;7.802;2022-09-09T16:08:36;99864.25;;;18.68;nan
48089;BME280;33867;50.314;7.802;2022-09-09T16:11:57;99855.34;;;18.33;nan
48089;BME280;33867;50.314;7.802;2022-09-09T16:15:17;99854.34;;;17.87;nan
48089;BME280;33867;50.314;7.802;2022-09-09T16:18:38;99851.34;;;17.34;nan
48089;BME280;33867;50.314;7.802;2022-09-09T16:21:57;99854.78;;;17.49;nan
48089;BME280;33867;50.314;7.802;2022-09-09T16:25:17;99846.44;;;17.98;nan
48089;BME280;33867;50.314;7.802;2022-09-09T16:28:37;99846.75;;;17.69;nan
48089;BME280;33867;50.314;7.802;2022-09-09T16:31:56;99848.09;;;17.93;nan
48089;BME280;33867;50.314;7.802;2022-09-09T16:35:15;99845.09;;;18.42;nan
48089;BME280;33867;50.314;7.802;2022-09-09T16:38:34;99838.38;;;18.25;nan
48089;BME280;33867;50.314;7.802;2022-09-09T16:41:55;99835.88;;;18.36;nan
48089;BME280;33867;50.314;7.802;2022-09-09T16:45:14;99839.19;;;18.19;nan
48089;BME280;33867;50.314;7.802;2022-09-09T16:48:33;99840.34;;;17.90;nan
48089;BME280;33867;50.314;7.802;2022-09-09T16:51:52;99847.94;;;18.01;nan
48089;BME280;33867;50.314;7.802;2022-09-09T16:55:11;99846.84;;;17.54;nan
48089;BME280;33867;50.314;7.802;2022-09-09T16:58:31;99853.91;;;17.76;nan
48089;BME280;33867;50.314;7.802;2022-09-09T17:01:51;99865.44;;;17.50;nan
48089;BME280;33867;50.314;7.802;2022-09-09T17:05:11;99870.94;;;16.94;nan
48089;BME280;33867;50.314;7.802;2022-09-09T17:08:31;99864.75;;;17.07;nan
48089;BME280;33867;50.314;7.802;2022-09-09T17:11:50;99870.94;;;17.22;nan
48089;BME280;33867;50.314;7.802;2022-09-09T17:15:11;99881.28;;;17.34;nan
48089;BME280;33867;50.314;7.802;2022-09-09T17:18:30;99877.50;;;17.35;nan
48089;BME280;33867;50.314;7.802;2022-09-09T17:21:49;99885.44;;;17.30;nan
48089;BME280;33867;50.314;7.802;2022-09-09T17:25:09;99877.41;;;17.21;nan
48089;BME280;33867;50.314;7.802;2022-09-09T17:28:28;99882.56;;;17.10;nan
48089;BME280;33867;50.314;7.802;2022-09-09T17:31:49;99890.28;;;17.06;nan
48089;BME280;33867;50.314;7.802;2022-09-09T17:35:09;99890.28;;;17.06;nan
48089;BME280;33867;50.314;7.802;2022-09-09T17:38:28;99897.59;;;17.06;nan
48089;BME280;33867;50.314;7.802;2022-09-09T17:41:48;99884.56;;;16.73;nan
48089;BME280;33867;50.314;7.802;2022-09-09T17:45:08;99881.66;;;16.02;nan
48089;BME280;33867;50.314;7.802;2022-09-09T17:48:29;99885.56;;;16.15;nan
48089;BME280;33867;50.314;7.802;2022-09-09T17:51:48;99889.31;;;16.14;nan
48089;BME280;33867;50.314;7.802;2022-09-09T17:55:08;99901.47;;;16.18;nan
48089;BME280;33867;50.314;7.802;2022-09-09T17:58:28;99903.81;;;16.21;nan
48089;BME280;33867;50.314;7.802;2022-09-09T18:01:47;99905.00;;;15.67;nan
48089;BME280;33867;50.314;7.802;2022-09-09T18:05:09;99910.13;;;15.47;nan
48089;BME280;33867;50.314;7.802;2022-09-09T18:08:29;99905.78;;;15.38;nan
48089;BME280;33867;50.314;7.802;2022-09-09T18:11:49;99909.16;;;15.63;nan
48089;BME280;33867;50.314;7.802;2022-09-09T18:15:09;99913.34;;;15.66;nan
48089;BME280;33867;50.314;7.802;2022-09-09T18:18:28;99925.69;;;15.83;nan
48089;BME280;33867;50.314;7.802;2022-09-09T18:21:48;99931.41;;;15.88;nan
48089;BME280;33867;50.314;7.802;2022-09-09T18:25:07;99938.53;;;15.89;nan
48089;BME280;33867;50.314;7.802;2022-09-09T18:28:26;99943.84;;;15.97;nan
48089;BME280;33867;50.314;7.802;2022-09-09T18:31:46;99943.69;;;15.99;nan
48089;BME280;33867;50.314;7.802;2022-09-09T18:35:05;99936.38;;;15.99;nan
48089;BME280;33867;50.314;7.802;2022-09-09T18:38:24;99937.22;;;16.00;nan
48089;BME280;33867;50.314;7.802;2022-09-09T18:41:48;99941.97;;;15.98;nan
48089;BME280;33867;50.314;7.802;2022-09-09T18:45:08;99952.28;;;16.02;nan
48089;BME280;33867;50.314;7.802;2022-09-09T18:48:27;99940.38;;;16.03;nan
48089;BME280;33867;50.314;7.802;2022-09-09T18:51:47;99948.13;;;16.06;nan
48089;BME280;33867;50.314;7.802;2022-09-09T18:55:07;99952.72;;;16.06;nan
48089;BME280;33867;50.314;7.802;2022-09-09T18:58:27;99953.56;;;16.06;nan
48089;BME280;33867;50.314;7.802;2022-09-09T19:01:47;99962.38;;;16.08;nan
48089;BME280;33867;50.314;7.802;2022-09-09T19:05:08;99952.53;;;16.07;nan
48089;BME280;33867;50.314;7.802;2022-09-09T19:08:27;99952.19;;;16.11;nan
48089;BME280;33867;50.314;7.802;2022-09-09T19:11:46;99959.19;;;16.05;nan
48089;BME280;33867;50.314;7.802;2022-09-09T19:15:06;99943.69;;;15.99;nan
48089;BME280;33867;50.314;7.802;2022-09-09T19:18:25;99945.34;;;15.85;nan
48089;BME280;33867;50.314;7.802;2022-09-09T19:21:45;99950.41;;;15.88;nan
48089;BME280;33867;50.314;7.802;2022-09-09T19:25:05;99949.94;;;15.85;nan
48089;BME280;33867;50.314;7.802;2022-09-09T19:28:24;99946.03;;;15.49;nan